createdAt,value
2022-08-25T00:00:20.344Z,43.29
2022-08-25T00:02:56.226Z,42.48
2022-08-25T00:05:29.140Z,42.18
2022-08-25T00:07:59.992Z,42.50
2022-08-25T00:10:28.614Z,42.48
2022-08-25T00:12:57.967Z,43.08
2022-08-25T00:15:26.467Z,42.71
2022-08-25T00:17:54.460Z,42.99
2022-08-25T00:20:22.980Z,43.57
2022-08-25T00:22:50.971Z,44.80
2022-08-25T00:25:19.654Z,45.95
2022-08-25T00:27:48.650Z,45.68
2022-08-25T00:30:19.191Z,45.97
2022-08-25T00:32:55.302Z,46.01
2022-08-25T00:35:27.222Z,46.58
2022-08-25T00:37:55.646Z,45.73
2022-08-25T00:40:25.257Z,45.92
2022-08-25T00:42:54.476Z,46.94
2022-08-25T00:45:24.410Z,47.22
2022-08-25T00:47:52.321Z,46.97
2022-08-25T00:50:20.887Z,47.36
2022-08-25T00:52:51.627Z,46.34
2022-08-25T00:55:22.992Z,45.37
2022-08-25T00:57:55.641Z,46.28
2022-08-25T01:00:27.407Z,44.90
2022-08-25T01:02:56.736Z,44.74
2022-08-25T01:05:25.614Z,44.78
2022-08-25T01:07:53.890Z,47.13
2022-08-25T01:10:27.096Z,47.31
2022-08-25T01:12:57.775Z,48.62
2022-08-25T01:15:27.687Z,48.70
2022-08-25T01:17:58.365Z,49.45
2022-08-25T01:20:31.546Z,49.76
2022-08-25T01:23:01.306Z,50.27
2022-08-25T01:25:41.177Z,50.70
2022-08-25T01:28:09.378Z,51.23
2022-08-25T01:30:38.096Z,52.17
2022-08-25T01:33:06.184Z,51.66
2022-08-25T01:35:34.349Z,52.26
2022-08-25T01:38:05.097Z,52.02
2022-08-25T01:40:33.635Z,51.27
2022-08-25T01:43:09.614Z,51.13
2022-08-25T01:45:39.017Z,51.88
2022-08-25T01:48:07.865Z,51.90
2022-08-25T01:50:36.546Z,52.00
2022-08-25T01:53:14.591Z,52.35
2022-08-25T01:55:52.984Z,52.61
2022-08-25T01:58:25.297Z,52.14
2022-08-25T02:00:56.638Z,52.16
2022-08-25T02:03:25.691Z,53.08
2022-08-25T02:05:54.828Z,53.58
2022-08-25T02:08:24.748Z,54.48
2022-08-25T02:10:53.790Z,53.72
2022-08-25T02:13:26.733Z,53.12
2022-08-25T02:16:00.223Z,51.88
2022-08-25T02:18:28.076Z,51.98
2022-08-25T02:20:56.142Z,52.44
2022-08-25T02:23:25.514Z,52.24
2022-08-25T02:25:53.444Z,52.88
2022-08-25T02:28:21.389Z,53.78
2022-08-25T02:30:49.879Z,54.12
2022-08-25T02:33:17.842Z,54.46
2022-08-25T02:35:46.973Z,54.86
2022-08-25T02:38:15.390Z,55.20
2022-08-25T02:40:44.761Z,54.94
2022-08-25T02:43:12.678Z,54.88
2022-08-25T02:45:41.623Z,54.72
2022-08-25T02:48:09.619Z,55.71
2022-08-25T02:50:37.515Z,56.08
2022-08-25T02:53:05.461Z,57.00
2022-08-25T02:55:33.677Z,57.26
2022-08-25T02:58:04.051Z,57.29
2022-08-25T03:00:32.158Z,57.61
2022-08-25T03:03:00.321Z,57.43
2022-08-25T03:05:28.635Z,57.68
2022-08-25T03:07:56.628Z,57.61
2022-08-25T03:10:25.949Z,57.33
2022-08-25T03:12:53.906Z,56.99
2022-08-25T03:15:25.663Z,57.17
2022-08-25T03:17:53.652Z,57.18
2022-08-25T03:20:21.882Z,57.65
2022-08-25T03:22:50.267Z,57.39
2022-08-25T03:25:35.957Z,57.60
2022-08-25T03:28:04.904Z,56.51
2022-08-25T03:30:34.413Z,56.06
2022-08-25T03:33:02.446Z,56.20
2022-08-25T03:35:30.951Z,55.93
2022-08-25T03:37:59.527Z,55.73
2022-08-25T03:40:28.119Z,55.85
2022-08-25T03:42:56.859Z,55.17
2022-08-25T03:45:25.880Z,54.68
2022-08-25T03:47:55.205Z,54.53
2022-08-25T03:50:24.129Z,55.11
2022-08-25T03:52:53.795Z,54.75
2022-08-25T03:55:23.310Z,54.08
2022-08-25T03:57:51.690Z,54.86
2022-08-25T04:00:20.862Z,56.17
2022-08-25T04:02:48.975Z,55.36
2022-08-25T04:05:18.333Z,54.96
2022-08-25T04:07:47.188Z,55.02
2022-08-25T04:10:15.223Z,54.79
2022-08-25T04:12:43.201Z,55.13
2022-08-25T04:15:12.142Z,55.29
2022-08-25T04:17:41.546Z,56.04
2022-08-25T04:20:10.856Z,55.63
2022-08-25T04:22:44.954Z,56.36
2022-08-25T04:25:14.095Z,55.80
2022-08-25T04:27:42.192Z,56.01
2022-08-25T04:30:11.475Z,56.39
2022-08-25T04:32:39.437Z,56.39
2022-08-25T04:35:08.127Z,57.07
2022-08-25T04:37:36.210Z,57.33
2022-08-25T04:40:06.354Z,57.30
2022-08-25T04:42:34.505Z,57.68
2022-08-25T04:45:04.112Z,57.12
2022-08-25T04:47:32.228Z,57.39
2022-08-25T04:50:00.158Z,57.89
2022-08-25T04:52:28.124Z,58.33
2022-08-25T04:54:56.454Z,58.04
2022-08-25T04:57:25.752Z,58.25
2022-08-25T04:59:54.975Z,58.39
2022-08-25T05:02:23.686Z,58.54
2022-08-25T05:04:51.770Z,57.72
2022-08-25T05:07:19.733Z,57.53
2022-08-25T05:09:47.664Z,58.13
2022-08-25T05:12:15.641Z,58.19
2022-08-25T05:14:45.443Z,57.73
2022-08-25T05:17:14.067Z,58.25
2022-08-25T05:19:42.798Z,57.24
2022-08-25T05:22:10.692Z,57.34
2022-08-25T05:24:38.643Z,56.86
2022-08-25T05:27:06.762Z,56.54
2022-08-25T05:29:34.747Z,56.81
2022-08-25T05:32:04.719Z,56.20
2022-08-25T05:34:32.674Z,56.39
2022-08-25T05:37:03.313Z,56.27
2022-08-25T05:39:32.444Z,55.73
2022-08-25T05:42:00.436Z,55.47
2022-08-25T05:44:28.466Z,55.29
2022-08-25T05:46:56.424Z,54.16
2022-08-25T05:49:25.770Z,53.51
2022-08-25T05:51:53.695Z,53.60
2022-08-25T05:54:21.528Z,52.92
2022-08-25T05:56:49.474Z,52.86
2022-08-25T05:59:17.407Z,52.94
2022-08-25T06:02:02.782Z,52.44
2022-08-25T06:04:32.502Z,51.79
2022-08-25T06:07:00.690Z,51.45
2022-08-25T06:09:28.690Z,51.40
2022-08-25T06:11:56.803Z,51.35
2022-08-25T06:14:25.455Z,50.73
2022-08-25T06:16:53.527Z,50.56
2022-08-25T06:19:23.359Z,49.81
2022-08-25T06:21:56.283Z,49.58
2022-08-25T06:24:24.855Z,50.29
2022-08-25T06:26:52.809Z,50.27
2022-08-25T06:29:21.080Z,49.86
2022-08-25T06:31:49.944Z,49.31
2022-08-25T06:34:18.321Z,49.35
2022-08-25T06:36:48.935Z,48.73
2022-08-25T06:39:18.837Z,48.12
2022-08-25T06:41:46.795Z,48.19
2022-08-25T06:44:14.719Z,47.59
2022-08-25T06:46:42.660Z,47.00
2022-08-25T06:49:11.513Z,46.58
2022-08-25T06:51:39.775Z,45.63
2022-08-25T06:54:08.387Z,45.78
2022-08-25T06:56:38.504Z,45.42
2022-08-25T06:59:07.308Z,45.25
2022-08-25T07:01:35.710Z,45.16
2022-08-25T07:04:10.348Z,45.33
2022-08-25T07:06:41.105Z,44.69
2022-08-25T07:09:10.455Z,44.19
2022-08-25T07:11:40.539Z,43.36
2022-08-25T07:14:10.939Z,43.04
2022-08-25T07:16:39.584Z,42.51
2022-08-25T07:19:09.962Z,42.50
2022-08-25T07:21:45.720Z,42.21
2022-08-25T07:24:15.097Z,42.31
2022-08-25T07:26:46.598Z,41.86
2022-08-25T07:29:17.667Z,42.02
2022-08-25T07:31:46.076Z,41.75
2022-08-25T07:34:31.604Z,40.95
2022-08-25T07:36:59.668Z,40.17
2022-08-25T07:39:29.131Z,40.48
2022-08-25T07:41:58.821Z,40.99
2022-08-25T07:44:27.858Z,40.35
2022-08-25T07:46:56.447Z,40.13
2022-08-25T07:49:25.886Z,39.95
2022-08-25T07:52:04.599Z,40.16
2022-08-25T07:54:35.447Z,39.82
2022-08-25T07:57:08.809Z,39.16
2022-08-25T07:59:39.268Z,39.56
2022-08-25T08:02:09.299Z,39.19
2022-08-25T08:04:46.314Z,38.47
2022-08-25T08:07:14.232Z,37.97
2022-08-25T08:09:42.146Z,38.64
2022-08-25T08:12:12.114Z,38.03
2022-08-25T08:14:45.055Z,38.01
2022-08-25T08:17:14.394Z,38.12
2022-08-25T08:19:45.238Z,38.06
2022-08-25T08:22:15.593Z,37.17
2022-08-25T08:24:54.865Z,37.69
2022-08-25T08:27:26.185Z,37.08
2022-08-25T08:29:54.684Z,36.86
2022-08-25T08:32:23.820Z,37.86
2022-08-25T08:34:59.479Z,36.87
2022-08-25T08:37:28.029Z,36.27
2022-08-25T08:39:56.425Z,35.50
2022-08-25T08:42:46.853Z,36.55
2022-08-25T08:45:26.399Z,36.85
2022-08-25T08:48:34.045Z,35.26
2022-08-25T08:51:09.995Z,36.01
2022-08-25T08:53:44.798Z,35.38
2022-08-25T08:56:16.914Z,35.17
2022-08-25T08:58:49.975Z,35.31
2022-08-25T09:01:23.797Z,34.59
2022-08-25T09:03:55.515Z,34.35
2022-08-25T09:06:26.191Z,33.97
2022-08-25T09:08:55.560Z,33.29
2022-08-25T09:11:31.793Z,33.62
2022-08-25T09:14:10.560Z,34.07
2022-08-25T09:16:58.783Z,34.41
2022-08-25T09:19:53.387Z,33.81
2022-08-25T09:22:35.948Z,33.36
2022-08-25T09:25:14.535Z,33.47
2022-08-25T09:27:51.634Z,33.49
2022-08-25T09:30:22.100Z,33.31
2022-08-25T09:33:02.121Z,33.11
2022-08-25T09:35:32.415Z,32.15
2022-08-25T09:38:04.975Z,30.07
2022-08-25T09:40:35.355Z,30.30
2022-08-25T09:43:05.697Z,30.67
2022-08-25T09:45:38.221Z,29.07
2022-08-25T09:48:22.045Z,28.71
2022-08-25T09:50:51.464Z,30.31
2022-08-25T09:53:21.785Z,29.57
2022-08-25T09:55:59.785Z,30.10
2022-08-25T09:58:28.310Z,29.51
2022-08-25T10:01:19.335Z,29.53
2022-08-25T10:03:59.149Z,30.34
2022-08-25T10:06:29.669Z,29.59
2022-08-25T10:09:00.794Z,29.55
2022-08-25T10:11:39.554Z,28.02
2022-08-25T10:14:18.138Z,28.00
2022-08-25T10:16:49.035Z,27.60
2022-08-25T10:19:26.522Z,27.03
2022-08-25T10:22:07.244Z,26.74
2022-08-25T10:24:37.258Z,27.51
2022-08-25T10:27:11.547Z,27.18
2022-08-25T10:29:55.519Z,27.59
2022-08-25T10:32:31.517Z,27.80
2022-08-25T10:35:00.812Z,26.85
2022-08-25T10:37:36.096Z,27.03
2022-08-25T10:40:14.068Z,25.88
2022-08-25T10:42:53.842Z,27.90
2022-08-25T10:45:40.800Z,25.74
2022-08-25T10:48:22.299Z,26.74
2022-08-25T10:50:54.109Z,25.98
2022-08-25T10:53:27.949Z,26.86
2022-08-25T10:56:07.426Z,26.60
2022-08-25T10:58:59.709Z,23.49
2022-08-25T11:01:43.702Z,23.33
2022-08-25T11:04:15.562Z,22.17
2022-08-25T11:06:52.622Z,21.58
2022-08-25T11:09:24.682Z,21.91
2022-08-25T11:11:56.890Z,21.54
2022-08-25T11:14:34.396Z,22.48
2022-08-25T11:17:06.316Z,21.97
2022-08-25T11:19:38.435Z,21.74
2022-08-25T11:22:14.053Z,21.95
2022-08-25T11:24:50.779Z,21.07
2022-08-25T11:27:22.802Z,20.49
2022-08-25T11:30:00.027Z,20.83
2022-08-25T11:32:33.280Z,22.20
2022-08-25T11:35:04.530Z,21.28
2022-08-25T11:37:33.151Z,19.61
2022-08-25T11:40:44.339Z,19.03
2022-08-25T11:43:30.066Z,19.81
2022-08-25T11:46:15.655Z,18.93
2022-08-25T11:48:52.558Z,19.67
2022-08-25T11:51:33.786Z,18.82
2022-08-25T11:54:16.766Z,18.71
2022-08-25T11:56:53.014Z,18.65
2022-08-25T11:59:54.964Z,19.15
2022-08-25T12:02:36.304Z,18.20
2022-08-25T12:05:06.975Z,17.37
2022-08-25T12:08:22.669Z,18.81
2022-08-25T12:10:57.042Z,18.25
2022-08-25T12:13:45.618Z,18.40
2022-08-25T12:16:41.853Z,18.37
2022-08-25T12:19:30.969Z,18.55
2022-08-25T12:22:38.149Z,16.15
2022-08-25T12:25:11.622Z,17.74
2022-08-25T12:27:45.155Z,17.66
2022-08-25T12:30:21.125Z,16.67
2022-08-25T12:33:00.239Z,17.79
2022-08-25T12:35:33.018Z,18.30
2022-08-25T12:38:05.227Z,16.45
2022-08-25T12:40:38.537Z,16.95
2022-08-25T12:43:12.004Z,17.00
2022-08-25T12:45:46.769Z,16.24
2022-08-25T12:48:44.362Z,17.08
2022-08-25T12:51:18.497Z,17.46
2022-08-25T12:53:49.891Z,17.29
2022-08-25T12:56:24.857Z,17.63
2022-08-25T12:59:06.914Z,17.72
2022-08-25T13:01:44.801Z,15.83
2022-08-25T13:04:49.416Z,16.10
2022-08-25T13:07:28.899Z,17.26
2022-08-25T13:10:25.574Z,15.98
2022-08-25T13:13:00.233Z,13.92
2022-08-25T13:15:35.615Z,13.70
2022-08-25T13:18:22.031Z,13.18
2022-08-25T13:20:52.601Z,12.30
2022-08-25T13:23:25.791Z,13.48
2022-08-25T13:25:55.214Z,14.45
2022-08-25T13:28:31.555Z,13.94
2022-08-25T13:31:02.389Z,12.57
2022-08-25T13:33:30.506Z,13.42
2022-08-25T13:36:16.898Z,13.66
2022-08-25T13:38:46.783Z,13.07
2022-08-25T13:41:19.791Z,16.29
2022-08-25T13:43:48.999Z,17.44
2022-08-25T13:46:20.903Z,16.53
2022-08-25T13:48:49.558Z,15.70
2022-08-25T13:51:21.522Z,17.01
2022-08-25T13:53:51.622Z,17.95
2022-08-25T13:56:32.306Z,17.92
2022-08-25T13:59:06.746Z,16.44
2022-08-25T14:01:49.489Z,17.26
2022-08-25T14:04:24.237Z,17.44
2022-08-25T14:07:08.445Z,17.15
2022-08-25T14:09:41.749Z,14.30
2022-08-25T14:12:09.697Z,15.85
2022-08-25T14:14:38.910Z,13.37
2022-08-25T14:17:22.222Z,14.07
2022-08-25T14:19:56.629Z,14.82
2022-08-25T14:22:24.553Z,14.30
2022-08-25T14:24:54.203Z,14.03
2022-08-25T14:27:22.112Z,15.34
2022-08-25T14:29:52.934Z,14.76
2022-08-25T14:32:21.032Z,15.20
2022-08-25T14:34:48.945Z,16.20
2022-08-25T14:37:19.315Z,15.74
2022-08-25T14:39:47.416Z,16.41
2022-08-25T14:42:16.774Z,17.26
2022-08-25T14:44:45.863Z,17.59
2022-08-25T14:47:15.253Z,16.17
2022-08-25T14:49:45.815Z,16.35
2022-08-25T14:52:20.246Z,16.28
2022-08-25T14:54:50.707Z,16.65
2022-08-25T14:57:19.188Z,16.40
2022-08-25T14:59:47.534Z,17.06
2022-08-25T15:02:20.099Z,17.51
2022-08-25T15:04:53.267Z,17.46
2022-08-25T15:07:39.581Z,17.39
2022-08-25T15:10:09.062Z,16.80
2022-08-25T15:12:47.690Z,16.74
2022-08-25T15:15:16.372Z,17.77
2022-08-25T15:17:49.327Z,19.48
2022-08-25T15:20:19.133Z,20.46
2022-08-25T15:22:48.115Z,20.00
2022-08-25T15:25:16.909Z,21.10
2022-08-25T15:27:46.021Z,21.05
2022-08-25T15:30:15.304Z,21.77
2022-08-25T15:32:43.250Z,21.76
2022-08-25T15:35:15.336Z,22.27
2022-08-25T15:37:43.684Z,22.34
2022-08-25T15:40:12.790Z,23.02
2022-08-25T15:42:42.995Z,23.45
2022-08-25T15:45:14.426Z,23.62
2022-08-25T15:47:42.490Z,23.83
2022-08-25T15:50:14.535Z,24.21
2022-08-25T15:52:46.514Z,23.29
2022-08-25T15:55:16.353Z,23.60
2022-08-25T15:57:44.321Z,23.96
2022-08-25T16:00:13.726Z,23.98
2022-08-25T16:02:45.409Z,23.16
2022-08-25T16:05:16.412Z,24.10
2022-08-25T16:07:45.855Z,24.64
2022-08-25T16:10:14.168Z,25.58
2022-08-25T16:12:42.687Z,25.43
2022-08-25T16:15:12.069Z,23.79
2022-08-25T16:17:43.187Z,24.80
2022-08-25T16:20:14.242Z,25.70
2022-08-25T16:22:44.777Z,24.49
2022-08-25T16:25:13.065Z,24.76
2022-08-25T16:27:41.021Z,24.14
2022-08-25T16:30:13.766Z,24.31
2022-08-25T16:32:44.852Z,25.26
2022-08-25T16:35:14.365Z,24.88
2022-08-25T16:37:42.745Z,24.34
2022-08-25T16:40:14.713Z,25.21
2022-08-25T16:42:42.899Z,25.53
2022-08-25T16:45:11.673Z,25.38
2022-08-25T16:47:39.695Z,24.88
2022-08-25T16:50:11.304Z,25.92
2022-08-25T16:52:58.150Z,25.65
2022-08-25T16:55:28.481Z,25.69
2022-08-25T16:58:07.103Z,25.48
2022-08-25T17:00:37.921Z,26.39
2022-08-25T17:03:06.674Z,25.35
2022-08-25T17:05:40.877Z,23.95
2022-08-25T17:08:24.045Z,23.21
2022-08-25T17:10:53.530Z,22.30
2022-08-25T17:13:22.033Z,21.97
2022-08-25T17:15:52.360Z,22.55
2022-08-25T17:18:20.529Z,22.98
2022-08-25T17:20:48.660Z,22.51
2022-08-25T17:23:21.154Z,23.08
2022-08-25T17:25:51.064Z,23.57
2022-08-25T17:28:19.335Z,24.79
2022-08-25T17:30:49.331Z,25.45
2022-08-25T17:33:18.089Z,25.47
2022-08-25T17:35:54.317Z,26.10
2022-08-25T17:38:26.676Z,26.42
2022-08-25T17:40:58.940Z,26.55
2022-08-25T17:43:28.191Z,26.52
2022-08-25T17:45:57.506Z,26.92
2022-08-25T17:48:26.321Z,27.47
2022-08-25T17:50:54.388Z,28.38
2022-08-25T17:53:22.298Z,28.40
2022-08-25T17:55:58.673Z,28.33
2022-08-25T17:58:27.346Z,28.61
2022-08-25T18:00:55.798Z,29.08
2022-08-25T18:03:23.737Z,29.21
2022-08-25T18:05:51.679Z,29.60
2022-08-25T18:08:19.618Z,30.25
2022-08-25T18:11:01.722Z,30.76
2022-08-25T18:13:31.226Z,30.93
2022-08-25T18:15:59.197Z,30.63
2022-08-25T18:18:27.180Z,31.29
2022-08-25T18:20:55.100Z,31.41
2022-08-25T18:23:23.156Z,31.56
2022-08-25T18:25:51.432Z,32.12
2022-08-25T18:28:29.944Z,32.19
2022-08-25T18:30:58.077Z,33.14
2022-08-25T18:33:26.062Z,33.65
2022-08-25T18:35:58.369Z,33.70
2022-08-25T18:38:43.753Z,34.26
2022-08-25T18:41:12.401Z,34.64
2022-08-25T18:43:41.721Z,34.92
2022-08-25T18:46:10.021Z,34.89
2022-08-25T18:48:38.533Z,35.27
2022-08-25T18:51:10.584Z,34.56
2022-08-25T18:53:50.518Z,35.07
2022-08-25T18:56:19.292Z,35.37
2022-08-25T18:58:48.956Z,35.47
2022-08-25T19:01:18.948Z,36.54
2022-08-25T19:03:47.085Z,36.94
2022-08-25T19:06:16.188Z,37.25
2022-08-25T19:08:45.168Z,38.00
2022-08-25T19:11:13.475Z,38.27
2022-08-25T19:13:41.655Z,38.46
2022-08-25T19:16:12.852Z,37.74
2022-08-25T19:18:42.635Z,37.83
2022-08-25T19:21:10.530Z,38.60
2022-08-25T19:23:38.976Z,38.62
2022-08-25T19:26:08.918Z,38.62
2022-08-25T19:28:48.495Z,38.43
2022-08-25T19:31:19.262Z,38.88
2022-08-25T19:33:47.424Z,38.16
2022-08-25T19:36:16.108Z,38.73
2022-08-25T19:38:45.145Z,38.89
2022-08-25T19:41:15.132Z,39.17
2022-08-25T19:43:55.406Z,39.10
2022-08-25T19:46:32.843Z,39.46
2022-08-25T19:49:08.042Z,39.48
2022-08-25T19:51:38.178Z,40.20
2022-08-25T19:54:06.625Z,39.98
2022-08-25T19:56:38.408Z,40.07
2022-08-25T19:59:12.191Z,41.04
2022-08-25T20:01:42.202Z,41.16
2022-08-25T20:04:11.506Z,41.53
2022-08-25T20:06:41.335Z,42.39
2022-08-25T20:09:35.485Z,42.90
2022-08-25T20:11:58.077Z,43.99
2022-08-25T20:14:26.055Z,43.80
2022-08-25T20:16:55.669Z,44.42
2022-08-25T20:19:23.613Z,45.02
2022-08-25T20:21:51.572Z,45.11
2022-08-25T20:24:38.841Z,44.76
2022-08-25T20:27:07.161Z,45.16
2022-08-25T20:29:35.053Z,45.58
2022-08-25T20:32:06.951Z,46.46
2022-08-25T20:34:35.037Z,45.76
2022-08-25T20:37:03.156Z,46.07
2022-08-25T20:39:31.047Z,46.34
2022-08-25T20:41:58.940Z,46.37
2022-08-25T20:44:33.686Z,46.41
2022-08-25T20:47:03.466Z,46.33
2022-08-25T20:49:37.858Z,46.21
2022-08-25T20:52:06.940Z,46.99
2022-08-25T20:54:34.975Z,47.20
2022-08-25T20:57:03.111Z,47.46
2022-08-25T20:59:33.695Z,46.96
2022-08-25T21:02:01.821Z,46.91
2022-08-25T21:04:30.452Z,47.49
2022-08-25T21:07:01.223Z,46.49
2022-08-25T21:09:29.636Z,46.98
2022-08-25T21:11:58.610Z,46.67
2022-08-25T21:14:27.209Z,47.21
2022-08-25T21:16:56.197Z,46.80
2022-08-25T21:19:30.083Z,46.41
2022-08-25T21:22:00.381Z,45.96
2022-08-25T21:24:29.115Z,46.20
2022-08-25T21:26:59.616Z,47.28
2022-08-25T21:29:29.927Z,48.46
2022-08-25T21:31:58.568Z,48.74
2022-08-25T21:34:28.741Z,49.49
2022-08-25T21:36:58.026Z,49.49
2022-08-25T21:39:29.576Z,48.44
2022-08-25T21:42:00.283Z,48.20
2022-08-25T21:44:29.050Z,48.38
2022-08-25T21:46:57.465Z,48.65
2022-08-25T21:49:25.783Z,48.64
2022-08-25T21:52:00.957Z,49.23
2022-08-25T21:54:30.952Z,49.51
2022-08-25T21:57:01.067Z,49.74
2022-08-25T21:59:30.662Z,49.52
2022-08-25T22:02:01.027Z,49.51
2022-08-25T22:04:31.877Z,49.42
2022-08-25T22:07:00.441Z,48.78
2022-08-25T22:09:30.175Z,49.80
2022-08-25T22:11:59.356Z,49.64
2022-08-25T22:14:27.761Z,49.76
2022-08-25T22:16:56.351Z,49.28
2022-08-25T22:19:24.852Z,49.48
2022-08-25T22:21:53.813Z,49.64
2022-08-25T22:24:21.910Z,49.52
2022-08-25T22:26:51.649Z,49.02
2022-08-25T22:29:24.804Z,49.32
2022-08-25T22:31:53.899Z,49.79
2022-08-25T22:34:31.909Z,49.74
2022-08-25T22:37:00.699Z,50.72
2022-08-25T22:39:28.968Z,50.91
2022-08-25T22:41:58.674Z,51.79
2022-08-25T22:44:27.089Z,51.05
2022-08-25T22:46:55.017Z,51.39
2022-08-25T22:49:23.367Z,51.60
2022-08-25T22:51:51.639Z,51.64
2022-08-25T22:54:23.107Z,51.44
2022-08-25T22:56:53.312Z,51.42
2022-08-25T22:59:22.877Z,51.53
2022-08-25T23:01:52.425Z,51.55
2022-08-25T23:04:20.685Z,52.30
2022-08-25T23:06:49.095Z,52.96
2022-08-25T23:09:17.405Z,53.30
2022-08-25T23:11:45.591Z,52.79
2022-08-25T23:14:13.846Z,52.98
2022-08-25T23:16:44.524Z,52.97
2022-08-25T23:19:14.370Z,52.67
2022-08-25T23:22:00.632Z,53.94
2022-08-25T23:24:30.099Z,53.69
2022-08-25T23:26:59.057Z,54.48
2022-08-25T23:29:27.807Z,55.04
2022-08-25T23:31:58.174Z,55.87
2022-08-25T23:34:26.793Z,55.51
2022-08-25T23:36:57.147Z,55.13
2022-08-25T23:39:25.640Z,55.30
2022-08-25T23:41:53.927Z,55.10
2022-08-25T23:44:23.297Z,55.41
2022-08-25T23:46:53.812Z,54.79
2022-08-25T23:49:25.013Z,55.62
2022-08-25T23:51:55.068Z,56.47
2022-08-25T23:54:23.077Z,56.33
2022-08-25T23:56:59.861Z,54.63
2022-08-25T23:59:29.550Z,54.78
